createdAt,value
2019-02-17T00:01:20.037Z,0.70
2019-02-17T00:03:58.046Z,0.70
2019-02-17T00:06:32.317Z,0.70
2019-02-17T00:09:08.890Z,0.60
2019-02-17T00:11:43.914Z,0.60
2019-02-17T00:14:18.197Z,0.60
2019-02-17T00:16:53.372Z,0.60
2019-02-17T00:19:28.916Z,0.50
2019-02-17T00:22:03.424Z,0.50
2019-02-17T00:24:37.454Z,0.60
2019-02-17T00:27:12.388Z,0.70
2019-02-17T00:29:45.762Z,0.80
2019-02-17T00:32:19.174Z,0.80
2019-02-17T00:34:54.353Z,0.80
2019-02-17T00:37:27.713Z,0.90
2019-02-17T00:40:01.785Z,0.90
2019-02-17T00:42:38.936Z,0.80
2019-02-17T00:45:13.495Z,0.80
2019-02-17T00:47:47.948Z,0.70
2019-02-17T00:50:21.535Z,0.70
2019-02-17T00:52:55.477Z,0.70
2019-02-17T00:55:29.168Z,0.70
2019-02-17T00:58:03.154Z,0.60
2019-02-17T01:00:36.835Z,0.60
2019-02-17T01:03:09.958Z,0.50
2019-02-17T01:05:45.160Z,0.50
2019-02-17T01:08:19.639Z,0.50
2019-02-17T01:10:53.522Z,0.40
2019-02-17T01:13:26.984Z,0.40
2019-02-17T01:15:59.924Z,0.30
2019-02-17T01:18:33.658Z,0.30
2019-02-17T01:21:07.308Z,0.20
2019-02-17T01:23:40.880Z,0.20
2019-02-17T01:26:14.791Z,0.20
2019-02-17T01:28:48.729Z,0.20
2019-02-17T01:31:22.062Z,0.20
2019-02-17T01:33:55.840Z,0.20
2019-02-17T01:36:29.611Z,0.20
2019-02-17T01:39:02.181Z,0.10
2019-02-17T01:41:36.562Z,0.10
2019-02-17T01:44:09.879Z,0.10
2019-02-17T01:46:43.550Z,0.00
2019-02-17T01:49:17.406Z,0.00
2019-02-17T01:51:51.132Z,0.00
2019-02-17T01:54:25.053Z,0.00
2019-02-17T01:56:58.578Z,0.00
2019-02-17T01:59:32.312Z,0.00
2019-02-17T02:02:06.395Z,0.00
2019-02-17T02:04:39.207Z,0.00
2019-02-17T02:07:12.459Z,0.00
2019-02-17T02:09:46.065Z,0.00
2019-02-17T02:12:20.478Z,0.00
2019-02-17T02:14:54.233Z,-0.10
2019-02-17T02:17:27.587Z,0.00
2019-02-17T02:20:01.227Z,0.00
2019-02-17T02:22:34.639Z,0.00
2019-02-17T02:25:08.146Z,0.00
2019-02-17T02:27:41.354Z,0.00
2019-02-17T02:30:15.107Z,0.00
2019-02-17T02:32:48.898Z,0.10
2019-02-17T02:35:22.626Z,0.20
2019-02-17T02:37:56.133Z,0.40
2019-02-17T02:40:29.194Z,0.50
2019-02-17T02:43:02.523Z,0.50
2019-02-17T02:45:37.694Z,0.50
2019-02-17T02:48:11.530Z,0.60
2019-02-17T02:50:45.232Z,0.50
2019-02-17T02:53:18.628Z,0.50
2019-02-17T02:55:52.195Z,0.50
2019-02-17T02:58:26.017Z,0.40
2019-02-17T03:00:59.258Z,0.40
2019-02-17T03:03:32.364Z,0.40
2019-02-17T03:06:17.355Z,0.40
2019-02-17T03:08:50.390Z,0.30
2019-02-17T03:11:24.351Z,0.30
2019-02-17T03:13:57.729Z,0.20
2019-02-17T03:16:31.266Z,0.20
2019-02-17T03:19:05.212Z,0.20
2019-02-17T03:21:38.499Z,0.20
2019-02-17T03:24:11.976Z,0.20
2019-02-17T03:26:46.313Z,0.20
2019-02-17T03:29:20.188Z,0.20
2019-02-17T03:31:53.980Z,0.20
2019-02-17T03:34:27.883Z,0.10
2019-02-17T03:37:02.125Z,0.10
2019-02-17T03:39:35.576Z,0.00
2019-02-17T03:42:09.532Z,0.00
2019-02-17T03:44:43.664Z,0.00
2019-02-17T03:47:15.464Z,0.00
2019-02-17T03:49:47.644Z,0.00
2019-02-17T03:52:21.158Z,0.00
2019-02-17T03:54:54.685Z,0.00
2019-02-17T03:57:28.488Z,0.10
2019-02-17T04:00:02.268Z,0.10
2019-02-17T04:02:35.591Z,0.10
2019-02-17T04:05:09.219Z,0.00
2019-02-17T04:07:42.514Z,0.00
2019-02-17T04:10:15.811Z,-0.10
2019-02-17T04:12:49.414Z,-0.10
2019-02-17T04:15:22.735Z,-0.10
2019-02-17T04:17:56.003Z,-0.20
2019-02-17T04:20:29.702Z,-0.20
2019-02-17T04:23:03.210Z,-0.20
2019-02-17T04:25:37.791Z,-0.20
2019-02-17T04:28:10.727Z,-0.30
2019-02-17T04:30:43.843Z,-0.30
2019-02-17T04:33:17.448Z,-0.30
2019-02-17T04:35:50.777Z,-0.40
2019-02-17T04:38:24.442Z,-0.30
2019-02-17T04:40:57.879Z,-0.40
2019-02-17T04:43:31.761Z,-0.40
2019-02-17T04:46:06.505Z,-0.40
2019-02-17T04:48:40.069Z,-0.50
2019-02-17T04:51:13.946Z,-0.50
2019-02-17T04:53:47.921Z,-0.50
2019-02-17T04:56:21.019Z,-0.50
2019-02-17T04:58:53.783Z,-0.50
2019-02-17T05:01:26.618Z,-0.60
2019-02-17T05:04:01.507Z,-0.60
2019-02-17T05:06:36.104Z,-0.60
2019-02-17T05:09:10.348Z,-0.60
2019-02-17T05:11:43.497Z,-0.60
2019-02-17T05:14:17.353Z,-0.60
2019-02-17T05:16:50.562Z,-0.60
2019-02-17T05:19:23.544Z,-0.60
2019-02-17T05:21:56.675Z,-0.60
2019-02-17T05:24:30.284Z,-0.60
2019-02-17T05:27:03.385Z,-0.50
2019-02-17T05:29:35.938Z,-0.50
2019-02-17T05:32:11.110Z,-0.40
2019-02-17T05:34:44.395Z,-0.30
2019-02-17T05:37:18.454Z,-0.30
2019-02-17T05:39:51.290Z,-0.10
2019-02-17T05:42:24.381Z,0.00
2019-02-17T05:44:57.752Z,0.10
2019-02-17T05:47:30.843Z,0.30
2019-02-17T05:50:03.552Z,0.60
2019-02-17T05:52:36.420Z,0.80
2019-02-17T05:55:09.650Z,1.00
2019-02-17T05:57:43.675Z,1.20
2019-02-17T06:00:22.549Z,1.30
2019-02-17T06:02:56.086Z,1.40
2019-02-17T06:05:29.423Z,1.40
2019-02-17T06:08:02.450Z,1.60
2019-02-17T06:10:36.185Z,1.70
2019-02-17T06:13:09.305Z,1.90
2019-02-17T06:15:41.997Z,1.90
2019-02-17T06:18:16.096Z,2.00
2019-02-17T06:20:49.596Z,2.10
2019-02-17T06:23:23.532Z,2.20
2019-02-17T06:25:57.427Z,2.30
2019-02-17T06:28:30.612Z,2.30
2019-02-17T06:31:13.706Z,2.30
2019-02-17T06:33:38.967Z,2.40
2019-02-17T06:36:12.209Z,2.60
2019-02-17T06:38:45.696Z,2.90
2019-02-17T06:41:18.703Z,3.10
2019-02-17T06:43:52.459Z,3.20
2019-02-17T06:46:29.671Z,3.20
2019-02-17T06:49:06.180Z,3.20
2019-02-17T06:51:39.434Z,3.20
2019-02-17T06:54:13.058Z,3.20
2019-02-17T06:57:00.753Z,3.20
2019-02-17T06:59:36.035Z,3.20
2019-02-17T07:02:11.302Z,3.30
2019-02-17T07:05:08.192Z,3.30
2019-02-17T07:07:44.461Z,3.40
2019-02-17T07:10:19.613Z,3.40
2019-02-17T07:12:55.723Z,3.50
2019-02-17T07:15:28.631Z,3.60
2019-02-17T07:18:05.520Z,3.70
2019-02-17T07:20:41.419Z,3.90
2019-02-17T07:23:25.245Z,4.00
2019-02-17T07:25:59.580Z,4.00
2019-02-17T07:28:39.807Z,4.00
2019-02-17T07:31:15.170Z,4.00
2019-02-17T07:33:51.057Z,4.10
2019-02-17T07:36:23.971Z,4.20
2019-02-17T07:38:56.716Z,4.20
2019-02-17T07:41:29.860Z,4.30
2019-02-17T07:44:03.919Z,4.40
2019-02-17T07:46:37.422Z,4.60
2019-02-17T07:49:11.060Z,4.80
2019-02-17T07:51:44.144Z,4.90
2019-02-17T07:54:19.032Z,5.00
2019-02-17T07:56:52.638Z,5.10
2019-02-17T07:59:26.420Z,5.30
2019-02-17T08:01:59.196Z,5.40
2019-02-17T08:04:32.399Z,5.60
2019-02-17T08:07:11.138Z,5.80
2019-02-17T08:09:44.552Z,6.00
2019-02-17T08:12:18.207Z,6.10
2019-02-17T08:14:51.244Z,6.30
2019-02-17T08:17:24.473Z,6.50
2019-02-17T08:19:57.592Z,6.70
2019-02-17T08:22:31.873Z,6.80
2019-02-17T08:25:04.833Z,7.00
2019-02-17T08:27:39.040Z,7.20
2019-02-17T08:30:12.722Z,7.40
2019-02-17T08:32:46.963Z,7.60
2019-02-17T08:35:20.149Z,7.80
2019-02-17T08:37:53.205Z,8.00
2019-02-17T08:40:27.329Z,8.20
2019-02-17T08:43:00.496Z,8.40
2019-02-17T08:45:33.706Z,8.50
2019-02-17T08:48:06.305Z,8.70
2019-02-17T08:50:39.942Z,8.90
2019-02-17T08:53:14.139Z,9.10
2019-02-17T08:55:48.308Z,9.20
2019-02-17T08:58:21.337Z,9.30
2019-02-17T09:00:54.850Z,9.50
2019-02-17T09:03:28.732Z,9.60
2019-02-17T09:06:02.069Z,9.80
2019-02-17T09:08:35.038Z,9.80
2019-02-17T09:11:08.546Z,10.00
2019-02-17T09:13:42.816Z,10.10
2019-02-17T09:16:16.163Z,10.20
2019-02-17T09:18:53.010Z,10.40
2019-02-17T09:21:27.069Z,10.50
2019-02-17T09:24:01.073Z,10.60
2019-02-17T09:26:34.368Z,10.70
2019-02-17T09:29:07.538Z,10.80
2019-02-17T09:31:40.689Z,10.90
2019-02-17T09:34:14.380Z,11.00
2019-02-17T09:36:48.060Z,11.10
2019-02-17T09:39:20.769Z,11.20
2019-02-17T09:41:54.270Z,11.30
2019-02-17T09:44:27.565Z,11.40
2019-02-17T09:47:00.721Z,11.40
2019-02-17T09:49:33.877Z,11.50
2019-02-17T09:52:07.404Z,11.60
2019-02-17T09:54:40.652Z,11.60
2019-02-17T09:57:13.093Z,11.70
2019-02-17T09:59:45.608Z,11.80
2019-02-17T10:02:26.360Z,11.90
2019-02-17T10:04:52.802Z,12.00
2019-02-17T10:07:25.913Z,12.10
2019-02-17T10:09:58.939Z,12.20
2019-02-17T10:12:33.334Z,12.30
2019-02-17T10:15:06.064Z,12.40
2019-02-17T10:17:39.346Z,12.50
2019-02-17T10:20:12.565Z,12.50
2019-02-17T10:22:45.838Z,12.60
2019-02-17T10:25:20.054Z,12.60
2019-02-17T10:27:53.010Z,12.70
2019-02-17T10:30:27.262Z,12.70
2019-02-17T10:33:00.994Z,12.80
2019-02-17T10:35:34.719Z,12.90
2019-02-17T10:38:07.938Z,13.00
2019-02-17T10:40:41.365Z,13.10
2019-02-17T10:43:15.426Z,13.20
2019-02-17T10:45:48.084Z,13.20
2019-02-17T10:48:21.447Z,13.30
2019-02-17T10:50:54.923Z,13.40
2019-02-17T10:53:28.285Z,13.50
2019-02-17T10:56:02.360Z,13.60
2019-02-17T10:58:36.062Z,13.80
2019-02-17T11:01:09.825Z,14.00
2019-02-17T11:04:00.715Z,14.40
2019-02-17T11:06:33.880Z,15.10
2019-02-17T11:09:17.981Z,16.40
2019-02-17T11:11:51.548Z,17.80
2019-02-17T11:14:26.748Z,18.60
2019-02-17T11:16:59.964Z,19.20
2019-02-17T11:19:35.573Z,19.80
2019-02-17T11:22:08.597Z,20.10
2019-02-17T11:24:41.631Z,20.30
2019-02-17T11:27:16.365Z,20.60
2019-02-17T11:29:49.318Z,20.90
2019-02-17T11:32:22.214Z,21.00
2019-02-17T11:34:55.612Z,21.00
2019-02-17T11:37:28.157Z,21.10
2019-02-17T11:40:02.142Z,21.40
2019-02-17T11:42:35.063Z,21.30
2019-02-17T11:45:15.736Z,21.10
2019-02-17T11:47:54.559Z,21.40
2019-02-17T11:50:30.294Z,21.40
2019-02-17T11:53:04.161Z,21.80
2019-02-17T11:55:37.868Z,21.50
2019-02-17T11:58:11.910Z,21.60
2019-02-17T12:00:45.567Z,21.40
2019-02-17T12:03:19.123Z,21.00
2019-02-17T12:05:52.557Z,21.30
2019-02-17T12:08:23.694Z,21.80
2019-02-17T12:10:55.383Z,22.30
2019-02-17T12:13:28.380Z,21.60
2019-02-17T12:15:59.850Z,21.30
2019-02-17T12:18:32.637Z,20.90
2019-02-17T12:21:31.529Z,21.30
2019-02-17T12:24:11.769Z,21.80
2019-02-17T12:27:03.401Z,22.40
2019-02-17T12:29:48.117Z,23.10
2019-02-17T12:32:25.645Z,23.70
2019-02-17T12:34:59.665Z,24.40
2019-02-17T12:37:32.755Z,24.50
2019-02-17T12:40:05.970Z,23.90
2019-02-17T12:42:39.920Z,24.00
2019-02-17T12:45:18.265Z,24.10
2019-02-17T12:47:57.556Z,24.60
2019-02-17T12:50:26.131Z,25.10
2019-02-17T12:53:00.271Z,25.20
2019-02-17T12:55:35.731Z,24.50
2019-02-17T12:58:09.939Z,23.40
2019-02-17T13:00:44.274Z,23.10
2019-02-17T13:03:16.960Z,22.50
2019-02-17T13:05:50.385Z,22.30
2019-02-17T13:08:24.449Z,23.10
2019-02-17T13:10:58.526Z,23.20
2019-02-17T13:13:31.104Z,22.40
2019-02-17T13:16:05.110Z,22.00
2019-02-17T13:18:38.192Z,21.80
2019-02-17T13:21:11.940Z,22.00
2019-02-17T13:23:49.099Z,22.10
2019-02-17T13:26:24.235Z,22.10
2019-02-17T13:29:00.024Z,22.30
2019-02-17T13:31:33.841Z,22.60
2019-02-17T13:34:11.299Z,23.40
2019-02-17T13:36:44.541Z,24.10
2019-02-17T13:39:17.381Z,24.30
2019-02-17T13:41:51.837Z,25.00
2019-02-17T13:44:24.878Z,25.20
2019-02-17T13:46:59.352Z,24.60
2019-02-17T13:49:32.215Z,24.10
2019-02-17T13:52:04.823Z,24.70
2019-02-17T13:54:40.095Z,25.30
2019-02-17T13:57:13.408Z,25.90
2019-02-17T13:59:47.281Z,26.10
2019-02-17T14:02:22.593Z,26.20
2019-02-17T14:04:56.060Z,26.40
2019-02-17T14:07:29.084Z,26.90
2019-02-17T14:10:02.429Z,27.30
2019-02-17T14:12:38.026Z,27.70
2019-02-17T14:15:13.684Z,28.00
2019-02-17T14:17:48.309Z,28.10
2019-02-17T14:20:21.661Z,28.10
2019-02-17T14:22:55.646Z,28.00
2019-02-17T14:25:28.840Z,27.90
2019-02-17T14:28:02.512Z,28.10
2019-02-17T14:30:35.393Z,28.10
2019-02-17T14:33:12.418Z,27.70
2019-02-17T14:35:47.813Z,27.30
2019-02-17T14:38:22.407Z,27.20
2019-02-17T14:40:56.514Z,27.60
2019-02-17T14:43:31.369Z,28.00
2019-02-17T14:46:06.522Z,27.80
2019-02-17T14:48:39.544Z,27.90
2019-02-17T14:51:13.603Z,28.00
2019-02-17T14:53:48.051Z,27.90
2019-02-17T14:56:23.205Z,27.40
2019-02-17T14:58:59.649Z,26.20
2019-02-17T15:01:33.738Z,26.20
2019-02-17T15:04:09.132Z,26.50
2019-02-17T15:06:42.621Z,26.70
2019-02-17T15:09:16.874Z,26.90
2019-02-17T15:11:52.503Z,26.90
2019-02-17T15:14:28.056Z,26.90
2019-02-17T15:17:02.023Z,26.60
2019-02-17T15:19:37.798Z,26.10
2019-02-17T15:22:12.752Z,26.10
2019-02-17T15:24:46.964Z,26.30
2019-02-17T15:27:20.073Z,26.50
2019-02-17T15:29:54.389Z,26.50
2019-02-17T15:32:28.056Z,26.30
2019-02-17T15:35:02.108Z,26.30
2019-02-17T15:37:37.902Z,25.90
2019-02-17T15:40:12.551Z,25.40
2019-02-17T15:42:47.824Z,24.60
2019-02-17T15:45:22.259Z,23.60
2019-02-17T15:47:56.485Z,22.50
2019-02-17T15:50:31.088Z,21.70
2019-02-17T15:53:05.729Z,21.10
2019-02-17T15:55:39.983Z,20.60
2019-02-17T15:58:15.715Z,20.20
2019-02-17T16:00:49.568Z,19.60
2019-02-17T16:03:24.461Z,19.20
2019-02-17T16:06:00.071Z,18.80
2019-02-17T16:08:37.908Z,18.70
2019-02-17T16:11:12.178Z,18.50
2019-02-17T16:13:46.318Z,18.20
2019-02-17T16:16:20.590Z,18.00
2019-02-17T16:18:54.539Z,17.80
2019-02-17T16:21:29.219Z,17.60
2019-02-17T16:24:04.225Z,17.40
2019-02-17T16:26:37.775Z,17.20
2019-02-17T16:29:11.097Z,16.90
2019-02-17T16:31:45.577Z,16.70
2019-02-17T16:34:20.503Z,16.40
2019-02-17T16:36:55.784Z,16.20
2019-02-17T16:39:30.475Z,16.10
2019-02-17T16:42:05.031Z,16.00
2019-02-17T16:44:39.232Z,15.70
2019-02-17T16:47:12.784Z,15.60
2019-02-17T16:49:48.957Z,15.40
2019-02-17T16:52:24.967Z,15.20
2019-02-17T16:54:59.354Z,15.10
2019-02-17T16:57:34.379Z,15.00
2019-02-17T17:00:09.683Z,14.90
2019-02-17T17:02:46.715Z,14.80
2019-02-17T17:05:22.181Z,14.60
2019-02-17T17:07:57.181Z,14.50
2019-02-17T17:10:31.817Z,14.40
2019-02-17T17:13:06.898Z,14.30
2019-02-17T17:15:40.894Z,14.20
2019-02-17T17:18:15.365Z,14.20
2019-02-17T17:20:49.681Z,14.10
2019-02-17T17:23:24.969Z,14.10
2019-02-17T17:26:00.685Z,14.00
2019-02-17T17:28:36.414Z,13.90
2019-02-17T17:31:12.338Z,13.70
2019-02-17T17:33:50.082Z,13.50
2019-02-17T17:36:26.258Z,13.30
2019-02-17T17:39:03.847Z,13.10
2019-02-17T17:41:39.688Z,12.90
2019-02-17T17:44:14.289Z,12.80
2019-02-17T17:46:49.459Z,12.70
2019-02-17T17:49:29.609Z,12.70
2019-02-17T17:52:05.232Z,12.70
2019-02-17T17:54:40.625Z,12.60
2019-02-17T17:57:15.929Z,12.50
2019-02-17T17:59:53.142Z,12.40
2019-02-17T18:02:29.104Z,12.30
2019-02-17T18:05:09.127Z,12.20
2019-02-17T18:07:40.142Z,12.00
2019-02-17T18:10:16.511Z,11.80
2019-02-17T18:12:51.614Z,11.70
2019-02-17T18:15:29.409Z,11.50
2019-02-17T18:18:05.926Z,11.60
2019-02-17T18:20:40.208Z,11.60
2019-02-17T18:23:16.535Z,11.50
2019-02-17T18:25:52.222Z,11.40
2019-02-17T18:28:26.838Z,11.40
2019-02-17T18:31:01.248Z,11.20
2019-02-17T18:33:35.782Z,11.10
2019-02-17T18:41:53.720Z,11.20
2019-02-17T18:44:27.587Z,11.10
2019-02-17T18:47:03.215Z,11.20
2019-02-17T18:49:38.579Z,11.30
2019-02-17T18:52:12.875Z,11.20
2019-02-17T18:54:45.530Z,11.20
2019-02-17T18:57:19.440Z,11.10
2019-02-17T18:59:53.116Z,11.00
2019-02-17T19:02:26.816Z,10.90
2019-02-17T19:05:00.688Z,10.70
2019-02-17T19:07:35.304Z,10.60
2019-02-17T19:10:11.460Z,10.60
2019-02-17T19:12:45.914Z,10.50
2019-02-17T19:15:20.386Z,10.40
2019-02-17T19:17:55.609Z,10.40
2019-02-17T19:20:32.068Z,10.30
2019-02-17T19:23:07.340Z,10.20
2019-02-17T19:25:42.933Z,10.20
2019-02-17T19:28:17.086Z,10.30
2019-02-17T19:30:52.256Z,10.40
2019-02-17T19:33:28.929Z,10.40
2019-02-17T19:36:06.595Z,10.30
2019-02-17T19:38:41.931Z,10.20
2019-02-17T19:41:16.568Z,10.00
2019-02-17T19:43:52.317Z,9.90
2019-02-17T19:46:27.703Z,9.90
2019-02-17T19:49:01.710Z,9.80
2019-02-17T19:51:36.231Z,9.80
2019-02-17T19:54:12.479Z,10.00
2019-02-17T19:56:48.121Z,10.00
2019-02-17T19:59:23.663Z,10.00
2019-02-17T20:01:58.430Z,10.00
2019-02-17T20:04:34.852Z,10.10
2019-02-17T20:07:11.115Z,10.10
2019-02-17T20:09:45.078Z,10.10
2019-02-17T20:12:17.936Z,10.00
2019-02-17T20:14:52.135Z,9.90
2019-02-17T20:17:24.609Z,9.70
2019-02-17T20:19:57.924Z,9.70
2019-02-17T20:22:30.916Z,9.60
2019-02-17T20:25:05.033Z,9.40
2019-02-17T20:27:38.674Z,9.30
2019-02-17T20:30:11.293Z,9.10
2019-02-17T20:32:44.271Z,8.90
2019-02-17T20:35:17.662Z,8.70
2019-02-17T20:37:51.378Z,8.50
2019-02-17T20:40:25.782Z,8.30
2019-02-17T20:42:58.762Z,8.20
2019-02-17T20:45:31.845Z,8.20
2019-02-17T20:48:05.047Z,8.10
2019-02-17T20:50:38.369Z,8.00
2019-02-17T20:53:12.144Z,7.90
2019-02-17T20:55:46.537Z,7.80
2019-02-17T20:58:19.543Z,7.90
2019-02-17T21:00:53.837Z,7.80
2019-02-17T21:03:28.303Z,7.80
2019-02-17T21:06:12.514Z,7.80
2019-02-17T21:08:40.582Z,7.80
2019-02-17T21:11:14.692Z,7.90
2019-02-17T21:13:49.261Z,7.80
2019-02-17T21:16:23.639Z,7.80
2019-02-17T21:18:57.283Z,7.90
2019-02-17T21:21:31.135Z,7.90
2019-02-17T21:24:06.766Z,8.00
2019-02-17T21:26:42.482Z,8.00
2019-02-17T21:29:17.729Z,8.20
2019-02-17T21:31:52.368Z,8.30
2019-02-17T21:34:30.367Z,8.30
2019-02-17T21:37:04.318Z,8.30
2019-02-17T21:39:38.821Z,8.30
2019-02-17T21:42:14.015Z,8.10
2019-02-17T21:44:48.399Z,8.00
2019-02-17T21:47:22.327Z,8.00
2019-02-17T21:49:56.506Z,7.90
2019-02-17T21:52:30.470Z,7.90
2019-02-17T21:55:04.369Z,7.80
2019-02-17T21:57:39.175Z,7.70
2019-02-17T22:00:17.195Z,7.80
2019-02-17T22:02:51.008Z,7.80
2019-02-17T22:05:24.932Z,7.70
2019-02-17T22:07:58.519Z,7.60
2019-02-17T22:10:32.916Z,7.40
2019-02-17T22:13:07.432Z,7.20
2019-02-17T22:15:41.285Z,7.00
2019-02-17T22:18:15.426Z,6.80
2019-02-17T22:20:49.164Z,6.70
2019-02-17T22:23:22.969Z,6.50
2019-02-17T22:25:57.489Z,6.40
2019-02-17T22:28:31.664Z,6.30
2019-02-17T22:31:05.253Z,6.30
2019-02-17T22:33:39.159Z,6.30
2019-02-17T22:36:13.086Z,6.30
2019-02-17T22:38:47.339Z,6.20
2019-02-17T22:41:21.382Z,6.20
2019-02-17T22:43:55.477Z,6.10
2019-02-17T22:46:28.578Z,6.00
2019-02-17T22:49:03.039Z,5.90
2019-02-17T22:51:36.389Z,5.90
2019-02-17T22:54:09.448Z,5.80
2019-02-17T22:56:43.406Z,5.70
2019-02-17T22:59:17.988Z,5.60
2019-02-17T23:01:52.115Z,5.50
2019-02-17T23:04:25.520Z,5.40
2019-02-17T23:07:00.186Z,5.30
2019-02-17T23:09:33.769Z,5.30
2019-02-17T23:12:07.281Z,5.20
2019-02-17T23:14:40.031Z,5.20
2019-02-17T23:17:13.074Z,5.20
2019-02-17T23:19:46.206Z,5.20
2019-02-17T23:22:19.787Z,5.10
2019-02-17T23:24:53.423Z,5.20
2019-02-17T23:27:27.374Z,5.30
2019-02-17T23:30:01.384Z,5.30
2019-02-17T23:32:35.488Z,5.20
2019-02-17T23:35:08.699Z,5.10
2019-02-17T23:37:42.466Z,5.00
2019-02-17T23:40:15.955Z,4.90
2019-02-17T23:42:49.543Z,5.00
2019-02-17T23:45:25.404Z,4.90
2019-02-17T23:47:59.031Z,4.90
2019-02-17T23:50:32.336Z,4.90
2019-02-17T23:53:09.307Z,4.90
2019-02-17T23:55:42.557Z,4.80
2019-02-17T23:58:16.167Z,4.80
